Uyuni, Uyuni Joya Andina Airport (SLUY)

NameUyuni Joya Andina Airport
CityUyuni
CountryBolivia
ICAOSLUY
IATAUYU
Altitude3665 m
CoordinatesGoogle Map
Live Air TrafficLiveATC.net
METARSLUY 121500Z 29004KT 9999 FEW023 15/04 Q1033
2019-11-12 15:00:00 Wind: West (290°) 2.06 m/s - Visibility: > 10000 m - Temperature: 15 °C - Dew point: 4 °C - Humidity: 48% - Pressure: 1033 hPa

Sorry, no flights used the airport in this database.